sensor_id;sensor_type;location;lat;lon;timestamp;temperature;humidity
9329;DHT22;4703;48.748;19.142;2022-08-14T00:01:44;19.70;99.90
9329;DHT22;4703;48.748;19.142;2022-08-14T00:04:22;18.50;99.90
9329;DHT22;4703;48.748;19.142;2022-08-14T00:07:08;18.50;99.90
9329;DHT22;4703;48.748;19.142;2022-08-14T00:09:40;18.50;99.90
9329;DHT22;4703;48.748;19.142;2022-08-14T00:12:34;18.40;99.90
9329;DHT22;4703;48.748;19.142;2022-08-14T00:15:27;18.40;99.90
9329;DHT22;4703;48.748;19.142;2022-08-14T00:18:12;18.90;99.90
9329;DHT22;4703;48.748;19.142;2022-08-14T00:21:01;18.40;99.90
9329;DHT22;4703;48.748;19.142;2022-08-14T00:23:28;18.40;99.90
9329;DHT22;4703;48.748;19.142;2022-08-14T00:25:55;18.30;99.90
9329;DHT22;4703;48.748;19.142;2022-08-14T00:28:34;18.30;99.90
9329;DHT22;4703;48.748;19.142;2022-08-14T00:31:05;18.30;99.90
9329;DHT22;4703;48.748;19.142;2022-08-14T00:33:33;18.20;99.90
9329;DHT22;4703;48.748;19.142;2022-08-14T00:36:22;20.40;99.90
9329;DHT22;4703;48.748;19.142;2022-08-14T00:39:13;18.20;99.90
9329;DHT22;4703;48.748;19.142;2022-08-14T00:41:45;18.20;99.90
9329;DHT22;4703;48.748;19.142;2022-08-14T00:44:14;18.20;99.90
9329;DHT22;4703;48.748;19.142;2022-08-14T00:46:53;19.10;99.90
9329;DHT22;4703;48.748;19.142;2022-08-14T00:49:24;18.10;99.90
9329;DHT22;4703;48.748;19.142;2022-08-14T00:51:52;18.10;99.90
9329;DHT22;4703;48.748;19.142;2022-08-14T00:54:19;18.70;99.90
9329;DHT22;4703;48.748;19.142;2022-08-14T00:56:50;18.00;99.90
9329;DHT22;4703;48.748;19.142;2022-08-14T00:59:26;18.00;99.90
9329;DHT22;4703;48.748;19.142;2022-08-14T01:01:56;18.00;99.90
9329;DHT22;4703;48.748;19.142;2022-08-14T01:04:26;18.00;99.90
9329;DHT22;4703;48.748;19.142;2022-08-14T01:07:16;18.00;99.90
9329;DHT22;4703;48.748;19.142;2022-08-14T01:09:56;18.00;99.90
9329;DHT22;4703;48.748;19.142;2022-08-14T01:12:25;18.00;99.90
9329;DHT22;4703;48.748;19.142;2022-08-14T01:15:00;18.00;99.90
9329;DHT22;4703;48.748;19.142;2022-08-14T01:17:29;18.00;99.90
9329;DHT22;4703;48.748;19.142;2022-08-14T01:20:19;18.00;99.90
9329;DHT22;4703;48.748;19.142;2022-08-14T01:23:11;17.90;99.90
9329;DHT22;4703;48.748;19.142;2022-08-14T01:25:46;17.90;99.90
9329;DHT22;4703;48.748;19.142;2022-08-14T01:28:14;17.80;99.90
9329;DHT22;4703;48.748;19.142;2022-08-14T01:31:01;17.80;99.90
9329;DHT22;4703;48.748;19.142;2022-08-14T01:33:44;17.80;99.90
9329;DHT22;4703;48.748;19.142;2022-08-14T01:36:34;17.70;99.90
9329;DHT22;4703;48.748;19.142;2022-08-14T01:39:08;17.70;99.90
9329;DHT22;4703;48.748;19.142;2022-08-14T01:41:40;18.00;99.90
9329;DHT22;4703;48.748;19.142;2022-08-14T01:44:12;17.60;99.90
9329;DHT22;4703;48.748;19.142;2022-08-14T01:47:04;17.60;99.90
9329;DHT22;4703;48.748;19.142;2022-08-14T01:49:48;17.60;99.90
9329;DHT22;4703;48.748;19.142;2022-08-14T01:52:34;17.60;99.90
9329;DHT22;4703;48.748;19.142;2022-08-14T01:55:24;17.50;99.90
9329;DHT22;4703;48.748;19.142;2022-08-14T01:57:59;17.60;99.90
9329;DHT22;4703;48.748;19.142;2022-08-14T02:00:49;18.40;99.90
9329;DHT22;4703;48.748;19.142;2022-08-14T02:03:26;17.50;99.90
9329;DHT22;4703;48.748;19.142;2022-08-14T02:05:58;17.50;99.90
9329;DHT22;4703;48.748;19.142;2022-08-14T02:08:46;17.50;99.90
9329;DHT22;4703;48.748;19.142;2022-08-14T02:11:22;17.50;99.90
9329;DHT22;4703;48.748;19.142;2022-08-14T02:13:56;17.40;99.90
9329;DHT22;4703;48.748;19.142;2022-08-14T02:16:36;17.40;99.90
9329;DHT22;4703;48.748;19.142;2022-08-14T02:19:13;17.40;99.90
9329;DHT22;4703;48.748;19.142;2022-08-14T02:21:44;18.10;99.90
9329;DHT22;4703;48.748;19.142;2022-08-14T02:24:17;17.30;99.90
9329;DHT22;4703;48.748;19.142;2022-08-14T02:27:06;17.40;99.90
9329;DHT22;4703;48.748;19.142;2022-08-14T02:29:54;17.30;99.90
9329;DHT22;4703;48.748;19.142;2022-08-14T02:32:28;17.30;99.90
9329;DHT22;4703;48.748;19.142;2022-08-14T02:35:08;17.40;99.90
9329;DHT22;4703;48.748;19.142;2022-08-14T02:37:39;17.30;99.90
9329;DHT22;4703;48.748;19.142;2022-08-14T02:40:14;17.30;99.90
9329;DHT22;4703;48.748;19.142;2022-08-14T02:42:46;17.30;99.90
9329;DHT22;4703;48.748;19.142;2022-08-14T02:45:24;18.60;99.90
9329;DHT22;4703;48.748;19.142;2022-08-14T02:48:00;17.30;99.90
9329;DHT22;4703;48.748;19.142;2022-08-14T02:50:29;17.40;99.90
9329;DHT22;4703;48.748;19.142;2022-08-14T02:52:59;17.30;99.90
9329;DHT22;4703;48.748;19.142;2022-08-14T02:55:29;17.30;99.90
9329;DHT22;4703;48.748;19.142;2022-08-14T02:57:56;17.30;99.90
9329;DHT22;4703;48.748;19.142;2022-08-14T03:00:30;17.30;99.90
9329;DHT22;4703;48.748;19.142;2022-08-14T03:03:01;17.30;99.90
9329;DHT22;4703;48.748;19.142;2022-08-14T03:05:34;17.20;99.90
9329;DHT22;4703;48.748;19.142;2022-08-14T03:08:08;17.20;99.90
9329;DHT22;4703;48.748;19.142;2022-08-14T03:10:44;18.00;99.90
9329;DHT22;4703;48.748;19.142;2022-08-14T03:13:17;17.20;99.90
9329;DHT22;4703;48.748;19.142;2022-08-14T03:15:50;17.10;99.90
9329;DHT22;4703;48.748;19.142;2022-08-14T03:18:23;17.20;99.90
9329;DHT22;4703;48.748;19.142;2022-08-14T03:21:03;17.10;99.90
9329;DHT22;4703;48.748;19.142;2022-08-14T03:23:32;17.10;99.90
9329;DHT22;4703;48.748;19.142;2022-08-14T03:26:11;17.10;99.90
9329;DHT22;4703;48.748;19.142;2022-08-14T03:28:56;17.10;99.90
9329;DHT22;4703;48.748;19.142;2022-08-14T03:31:27;17.00;99.90
9329;DHT22;4703;48.748;19.142;2022-08-14T03:33:56;17.00;99.90
9329;DHT22;4703;48.748;19.142;2022-08-14T03:36:26;17.00;99.90
9329;DHT22;4703;48.748;19.142;2022-08-14T03:39:13;17.00;99.90
9329;DHT22;4703;48.748;19.142;2022-08-14T03:41:50;18.20;99.90
9329;DHT22;4703;48.748;19.142;2022-08-14T03:44:19;17.00;99.90
9329;DHT22;4703;48.748;19.142;2022-08-14T03:47:06;17.00;99.90
9329;DHT22;4703;48.748;19.142;2022-08-14T03:49:34;17.00;99.90
9329;DHT22;4703;48.748;19.142;2022-08-14T03:52:08;17.00;99.90
9329;DHT22;4703;48.748;19.142;2022-08-14T03:54:55;17.00;99.90
9329;DHT22;4703;48.748;19.142;2022-08-14T03:57:22;17.00;99.90
9329;DHT22;4703;48.748;19.142;2022-08-14T03:59:50;17.80;99.90
9329;DHT22;4703;48.748;19.142;2022-08-14T04:02:17;17.00;99.90
9329;DHT22;4703;48.748;19.142;2022-08-14T04:04:59;17.10;99.90
9329;DHT22;4703;48.748;19.142;2022-08-14T04:07:39;17.10;99.90
9329;DHT22;4703;48.748;19.142;2022-08-14T04:10:27;17.20;99.90
9329;DHT22;4703;48.748;19.142;2022-08-14T04:12:59;17.20;99.90
9329;DHT22;4703;48.748;19.142;2022-08-14T04:15:33;17.30;99.90
9329;DHT22;4703;48.748;19.142;2022-08-14T04:18:20;17.60;99.90
9329;DHT22;4703;48.748;19.142;2022-08-14T04:20:47;17.30;99.90
9329;DHT22;4703;48.748;19.142;2022-08-14T04:23:22;17.30;99.90
9329;DHT22;4703;48.748;19.142;2022-08-14T04:26:00;17.30;99.90
9329;DHT22;4703;48.748;19.142;2022-08-14T04:28:29;17.30;99.90
9329;DHT22;4703;48.748;19.142;2022-08-14T04:31:19;17.40;99.90
9329;DHT22;4703;48.748;19.142;2022-08-14T04:34:06;17.40;99.90
9329;DHT22;4703;48.748;19.142;2022-08-14T04:36:42;17.40;99.90
9329;DHT22;4703;48.748;19.142;2022-08-14T04:39:32;17.50;99.90
9329;DHT22;4703;48.748;19.142;2022-08-14T04:42:23;17.50;99.90
9329;DHT22;4703;48.748;19.142;2022-08-14T04:45:18;17.50;99.90
9329;DHT22;4703;48.748;19.142;2022-08-14T04:47:46;17.60;99.90
9329;DHT22;4703;48.748;19.142;2022-08-14T04:50:37;17.60;99.90
9329;DHT22;4703;48.748;19.142;2022-08-14T04:53:16;18.30;99.90
9329;DHT22;4703;48.748;19.142;2022-08-14T04:55:52;17.70;99.90
9329;DHT22;4703;48.748;19.142;2022-08-14T04:58:28;17.70;99.90
9329;DHT22;4703;48.748;19.142;2022-08-14T05:00:59;17.80;99.90
9329;DHT22;4703;48.748;19.142;2022-08-14T05:03:29;17.80;99.90
9329;DHT22;4703;48.748;19.142;2022-08-14T05:06:00;17.90;99.90
9329;DHT22;4703;48.748;19.142;2022-08-14T05:08:30;17.90;99.90
9329;DHT22;4703;48.748;19.142;2022-08-14T05:11:18;17.90;99.90
9329;DHT22;4703;48.748;19.142;2022-08-14T05:13:45;17.90;99.90
9329;DHT22;4703;48.748;19.142;2022-08-14T05:16:32;19.10;99.90
9329;DHT22;4703;48.748;19.142;2022-08-14T05:18:59;18.00;99.90
9329;DHT22;4703;48.748;19.142;2022-08-14T05:21:46;19.10;99.90
9329;DHT22;4703;48.748;19.142;2022-08-14T05:24:33;18.10;99.90
9329;DHT22;4703;48.748;19.142;2022-08-14T05:27:04;18.10;99.90
9329;DHT22;4703;48.748;19.142;2022-08-14T05:29:31;18.90;99.90
9329;DHT22;4703;48.748;19.142;2022-08-14T05:31:58;18.30;99.90
9329;DHT22;4703;48.748;19.142;2022-08-14T05:34:27;18.20;99.90
9329;DHT22;4703;48.748;19.142;2022-08-14T05:36:58;18.20;99.90
9329;DHT22;4703;48.748;19.142;2022-08-14T05:39:29;18.30;99.90
9329;DHT22;4703;48.748;19.142;2022-08-14T05:41:57;18.30;99.90
9329;DHT22;4703;48.748;19.142;2022-08-14T05:44:26;18.40;99.90
9329;DHT22;4703;48.748;19.142;2022-08-14T05:46:57;18.40;99.90
9329;DHT22;4703;48.748;19.142;2022-08-14T05:49:25;18.40;99.90
9329;DHT22;4703;48.748;19.142;2022-08-14T05:52:00;18.60;99.90
9329;DHT22;4703;48.748;19.142;2022-08-14T05:54:29;18.60;99.90
9329;DHT22;4703;48.748;19.142;2022-08-14T05:57:02;18.70;99.90
9329;DHT22;4703;48.748;19.142;2022-08-14T05:59:30;18.70;99.90
9329;DHT22;4703;48.748;19.142;2022-08-14T06:02:07;18.80;99.90
9329;DHT22;4703;48.748;19.142;2022-08-14T06:04:37;18.80;99.90
9329;DHT22;4703;48.748;19.142;2022-08-14T06:07:05;18.90;99.90
9329;DHT22;4703;48.748;19.142;2022-08-14T06:09:32;19.00;99.90
9329;DHT22;4703;48.748;19.142;2022-08-14T06:12:09;19.00;99.90
9329;DHT22;4703;48.748;19.142;2022-08-14T06:14:38;19.10;99.90
9329;DHT22;4703;48.748;19.142;2022-08-14T06:17:05;19.10;99.90
9329;DHT22;4703;48.748;19.142;2022-08-14T06:19:32;19.20;99.90
9329;DHT22;4703;48.748;19.142;2022-08-14T06:21:59;19.30;99.90
9329;DHT22;4703;48.748;19.142;2022-08-14T06:24:28;19.30;99.90
9329;DHT22;4703;48.748;19.142;2022-08-14T06:27:01;19.40;99.90
9329;DHT22;4703;48.748;19.142;2022-08-14T06:29:36;19.40;99.90
9329;DHT22;4703;48.748;19.142;2022-08-14T06:32:04;19.40;99.90
9329;DHT22;4703;48.748;19.142;2022-08-14T06:34:51;19.50;99.90
9329;DHT22;4703;48.748;19.142;2022-08-14T06:40:15;19.50;99.90
9329;DHT22;4703;48.748;19.142;2022-08-14T06:43:01;19.50;99.90
9329;DHT22;4703;48.748;19.142;2022-08-14T06:45:36;19.60;99.90
9329;DHT22;4703;48.748;19.142;2022-08-14T06:48:14;19.60;99.90
9329;DHT22;4703;48.748;19.142;2022-08-14T06:50:50;19.70;99.90
9329;DHT22;4703;48.748;19.142;2022-08-14T06:53:19;19.70;99.90
9329;DHT22;4703;48.748;19.142;2022-08-14T06:55:47;19.70;99.90
9329;DHT22;4703;48.748;19.142;2022-08-14T06:58:26;19.80;99.90
9329;DHT22;4703;48.748;19.142;2022-08-14T07:00:57;20.00;99.90
9329;DHT22;4703;48.748;19.142;2022-08-14T07:03:56;19.90;99.90
9329;DHT22;4703;48.748;19.142;2022-08-14T07:06:51;19.90;99.90
9329;DHT22;4703;48.748;19.142;2022-08-14T07:09:24;20.00;99.90
9329;DHT22;4703;48.748;19.142;2022-08-14T07:11:54;20.00;99.90
9329;DHT22;4703;48.748;19.142;2022-08-14T07:14:22;20.10;99.90
9329;DHT22;4703;48.748;19.142;2022-08-14T07:16:48;20.10;99.90
9329;DHT22;4703;48.748;19.142;2022-08-14T07:19:17;20.20;99.90
9329;DHT22;4703;48.748;19.142;2022-08-14T07:21:46;20.20;99.90
9329;DHT22;4703;48.748;19.142;2022-08-14T07:24:13;20.30;99.90
9329;DHT22;4703;48.748;19.142;2022-08-14T07:26:52;20.40;99.90
9329;DHT22;4703;48.748;19.142;2022-08-14T07:29:19;22.60;99.90
9329;DHT22;4703;48.748;19.142;2022-08-14T07:31:52;20.50;99.90
9329;DHT22;4703;48.748;19.142;2022-08-14T07:34:19;20.60;99.90
9329;DHT22;4703;48.748;19.142;2022-08-14T07:37:06;20.70;99.90
9329;DHT22;4703;48.748;19.142;2022-08-14T07:39:35;20.70;99.90
9329;DHT22;4703;48.748;19.142;2022-08-14T07:42:04;20.80;99.90
9329;DHT22;4703;48.748;19.142;2022-08-14T07:44:32;20.80;99.90
9329;DHT22;4703;48.748;19.142;2022-08-14T07:47:12;20.90;99.90
9329;DHT22;4703;48.748;19.142;2022-08-14T07:49:51;21.00;99.90
9329;DHT22;4703;48.748;19.142;2022-08-14T07:52:22;21.00;99.90
9329;DHT22;4703;48.748;19.142;2022-08-14T07:54:59;21.00;99.90
9329;DHT22;4703;48.748;19.142;2022-08-14T07:57:26;21.10;99.90
9329;DHT22;4703;48.748;19.142;2022-08-14T07:59:53;21.20;99.90
9329;DHT22;4703;48.748;19.142;2022-08-14T08:02:21;21.30;99.90
9329;DHT22;4703;48.748;19.142;2022-08-14T08:04:51;21.40;99.90
9329;DHT22;4703;48.748;19.142;2022-08-14T08:07:26;21.30;99.90
9329;DHT22;4703;48.748;19.142;2022-08-14T08:09:58;21.40;99.90
9329;DHT22;4703;48.748;19.142;2022-08-14T08:12:28;21.50;99.90
9329;DHT22;4703;48.748;19.142;2022-08-14T08:14:59;21.60;99.90
9329;DHT22;4703;48.748;19.142;2022-08-14T08:17:31;21.70;99.90
9329;DHT22;4703;48.748;19.142;2022-08-14T08:20:05;21.70;99.90
9329;DHT22;4703;48.748;19.142;2022-08-14T08:22:38;21.70;99.90
9329;DHT22;4703;48.748;19.142;2022-08-14T08:25:09;21.80;99.90
9329;DHT22;4703;48.748;19.142;2022-08-14T08:28:07;21.80;99.90
9329;DHT22;4703;48.748;19.142;2022-08-14T08:31:02;21.90;99.90
9329;DHT22;4703;48.748;19.142;2022-08-14T08:33:33;22.10;99.90
9329;DHT22;4703;48.748;19.142;2022-08-14T08:36:07;22.20;99.80
9329;DHT22;4703;48.748;19.142;2022-08-14T08:38:44;22.30;99.90
9329;DHT22;4703;48.748;19.142;2022-08-14T08:41:42;22.30;99.90
9329;DHT22;4703;48.748;19.142;2022-08-14T08:44:15;22.40;99.90
9329;DHT22;4703;48.748;19.142;2022-08-14T08:46:58;22.50;99.90
9329;DHT22;4703;48.748;19.142;2022-08-14T08:49:40;22.60;99.90
9329;DHT22;4703;48.748;19.142;2022-08-14T08:52:26;22.70;99.80
9329;DHT22;4703;48.748;19.142;2022-08-14T08:54:58;22.70;99.40
9329;DHT22;4703;48.748;19.142;2022-08-14T08:57:33;22.80;99.20
9329;DHT22;4703;48.748;19.142;2022-08-14T09:00:14;23.00;98.90
9329;DHT22;4703;48.748;19.142;2022-08-14T09:02:58;23.00;99.00
9329;DHT22;4703;48.748;19.142;2022-08-14T09:06:01;23.10;99.50
9329;DHT22;4703;48.748;19.142;2022-08-14T09:08:49;23.20;98.60
9329;DHT22;4703;48.748;19.142;2022-08-14T09:11:16;23.20;98.50
9329;DHT22;4703;48.748;19.142;2022-08-14T09:13:51;23.40;98.20
9329;DHT22;4703;48.748;19.142;2022-08-14T09:16:20;23.40;97.90
9329;DHT22;4703;48.748;19.142;2022-08-14T09:18:50;23.50;98.10
9329;DHT22;4703;48.748;19.142;2022-08-14T09:21:19;23.70;97.40
9329;DHT22;4703;48.748;19.142;2022-08-14T09:23:52;23.70;97.00
9329;DHT22;4703;48.748;19.142;2022-08-14T09:26:41;23.80;97.10
9329;DHT22;4703;48.748;19.142;2022-08-14T09:29:15;23.80;96.70
9329;DHT22;4703;48.748;19.142;2022-08-14T09:31:48;23.90;97.00
9329;DHT22;4703;48.748;19.142;2022-08-14T09:37:34;24.00;95.50
9329;DHT22;4703;48.748;19.142;2022-08-14T09:43:12;24.20;95.10
9329;DHT22;4703;48.748;19.142;2022-08-14T09:45:52;24.30;94.80
9329;DHT22;4703;48.748;19.142;2022-08-14T09:48:26;24.30;94.00
9329;DHT22;4703;48.748;19.142;2022-08-14T09:50:58;24.30;94.20
9329;DHT22;4703;48.748;19.142;2022-08-14T09:53:41;24.30;94.50
9329;DHT22;4703;48.748;19.142;2022-08-14T09:56:41;24.30;94.80
9329;DHT22;4703;48.748;19.142;2022-08-14T09:59:11;24.50;94.30
9329;DHT22;4703;48.748;19.142;2022-08-14T10:01:42;24.60;93.50
9329;DHT22;4703;48.748;19.142;2022-08-14T10:04:24;24.70;93.00
9329;DHT22;4703;48.748;19.142;2022-08-14T10:07:02;24.90;92.70
9329;DHT22;4703;48.748;19.142;2022-08-14T10:09:31;25.10;92.60
9329;DHT22;4703;48.748;19.142;2022-08-14T10:12:01;25.20;92.20
9329;DHT22;4703;48.748;19.142;2022-08-14T10:14:33;25.30;91.70
9329;DHT22;4703;48.748;19.142;2022-08-14T10:17:04;25.50;92.40
9329;DHT22;4703;48.748;19.142;2022-08-14T10:19:34;25.70;91.90
9329;DHT22;4703;48.748;19.142;2022-08-14T10:22:08;25.90;90.70
9329;DHT22;4703;48.748;19.142;2022-08-14T10:24:56;26.20;88.80
9329;DHT22;4703;48.748;19.142;2022-08-14T10:27:26;26.40;88.20
9329;DHT22;4703;48.748;19.142;2022-08-14T10:29:57;26.60;85.80
9329;DHT22;4703;48.748;19.142;2022-08-14T10:32:30;26.80;86.80
9329;DHT22;4703;48.748;19.142;2022-08-14T10:35:18;27.10;85.20
9329;DHT22;4703;48.748;19.142;2022-08-14T10:37:59;27.40;84.20
9329;DHT22;4703;48.748;19.142;2022-08-14T10:40:31;27.60;82.20
9329;DHT22;4703;48.748;19.142;2022-08-14T10:43:18;27.80;79.60
9329;DHT22;4703;48.748;19.142;2022-08-14T10:45:59;28.10;79.20
9329;DHT22;4703;48.748;19.142;2022-08-14T10:48:59;28.30;77.50
9329;DHT22;4703;48.748;19.142;2022-08-14T10:51:32;28.40;78.60
9329;DHT22;4703;48.748;19.142;2022-08-14T10:54:09;28.50;79.10
9329;DHT22;4703;48.748;19.142;2022-08-14T10:57:33;28.70;76.00
9329;DHT22;4703;48.748;19.142;2022-08-14T11:00:13;28.90;74.30
9329;DHT22;4703;48.748;19.142;2022-08-14T11:03:03;29.10;73.50
9329;DHT22;4703;48.748;19.142;2022-08-14T11:05:52;29.30;73.70
9329;DHT22;4703;48.748;19.142;2022-08-14T11:08:32;29.40;72.70
9329;DHT22;4703;48.748;19.142;2022-08-14T11:11:02;29.60;69.10
9329;DHT22;4703;48.748;19.142;2022-08-14T11:13:32;29.70;70.70
9329;DHT22;4703;48.748;19.142;2022-08-14T11:16:00;29.80;70.80
9329;DHT22;4703;48.748;19.142;2022-08-14T11:18:29;30.00;67.80
9329;DHT22;4703;48.748;19.142;2022-08-14T11:21:06;30.10;70.50
9329;DHT22;4703;48.748;19.142;2022-08-14T11:23:37;30.10;67.60
9329;DHT22;4703;48.748;19.142;2022-08-14T11:26:10;30.00;68.30
9329;DHT22;4703;48.748;19.142;2022-08-14T11:28:42;30.10;65.80
9329;DHT22;4703;48.748;19.142;2022-08-14T11:31:22;30.00;66.20
9329;DHT22;4703;48.748;19.142;2022-08-14T11:33:51;29.90;69.00
9329;DHT22;4703;48.748;19.142;2022-08-14T11:36:23;29.60;66.20
9329;DHT22;4703;48.748;19.142;2022-08-14T11:39:21;29.20;67.20
9329;DHT22;4703;48.748;19.142;2022-08-14T11:42:06;28.80;69.30
9329;DHT22;4703;48.748;19.142;2022-08-14T11:44:59;28.70;71.10
9329;DHT22;4703;48.748;19.142;2022-08-14T11:47:37;28.80;71.90
9329;DHT22;4703;48.748;19.142;2022-08-14T11:50:30;29.20;73.50
9329;DHT22;4703;48.748;19.142;2022-08-14T11:53:05;29.70;72.20
9329;DHT22;4703;48.748;19.142;2022-08-14T11:55:37;30.30;65.00
9329;DHT22;4703;48.748;19.142;2022-08-14T11:58:08;30.70;67.00
9329;DHT22;4703;48.748;19.142;2022-08-14T12:01:05;31.00;63.70
9329;DHT22;4703;48.748;19.142;2022-08-14T12:03:38;31.30;66.90
9329;DHT22;4703;48.748;19.142;2022-08-14T12:06:19;31.60;66.10
9329;DHT22;4703;48.748;19.142;2022-08-14T12:09:02;31.80;59.20
9329;DHT22;4703;48.748;19.142;2022-08-14T12:11:38;31.90;61.20
9329;DHT22;4703;48.748;19.142;2022-08-14T12:14:13;32.00;58.60
9329;DHT22;4703;48.748;19.142;2022-08-14T12:17:03;31.90;59.50
9329;DHT22;4703;48.748;19.142;2022-08-14T12:19:59;32.00;59.90
9329;DHT22;4703;48.748;19.142;2022-08-14T12:22:39;32.20;58.30
9329;DHT22;4703;48.748;19.142;2022-08-14T12:25:18;32.00;57.90
9329;DHT22;4703;48.748;19.142;2022-08-14T12:27:51;31.60;58.60
9329;DHT22;4703;48.748;19.142;2022-08-14T12:30:37;31.30;60.80
9329;DHT22;4703;48.748;19.142;2022-08-14T12:33:24;30.70;60.10
9329;DHT22;4703;48.748;19.142;2022-08-14T12:36:07;30.30;59.80
9329;DHT22;4703;48.748;19.142;2022-08-14T12:38:42;29.80;60.40
9329;DHT22;4703;48.748;19.142;2022-08-14T12:41:16;29.30;59.90
9329;DHT22;4703;48.748;19.142;2022-08-14T12:43:58;29.00;63.70
9329;DHT22;4703;48.748;19.142;2022-08-14T12:46:33;28.70;63.60
9329;DHT22;4703;48.748;19.142;2022-08-14T12:49:16;28.50;68.00
9329;DHT22;4703;48.748;19.142;2022-08-14T12:51:56;28.30;66.00
9329;DHT22;4703;48.748;19.142;2022-08-14T12:54:24;28.20;68.70
9329;DHT22;4703;48.748;19.142;2022-08-14T12:57:04;28.00;67.80
9329;DHT22;4703;48.748;19.142;2022-08-14T12:59:34;27.90;65.50
9329;DHT22;4703;48.748;19.142;2022-08-14T13:02:22;29.70;66.60
9329;DHT22;4703;48.748;19.142;2022-08-14T13:04:53;27.60;68.40
9329;DHT22;4703;48.748;19.142;2022-08-14T13:07:22;27.50;68.90
9329;DHT22;4703;48.748;19.142;2022-08-14T13:09:58;27.50;70.30
9329;DHT22;4703;48.748;19.142;2022-08-14T13:12:47;27.40;69.70
9329;DHT22;4703;48.748;19.142;2022-08-14T13:15:35;27.30;67.50
9329;DHT22;4703;48.748;19.142;2022-08-14T13:18:06;27.30;68.20
9329;DHT22;4703;48.748;19.142;2022-08-14T13:20:36;27.20;68.30
9329;DHT22;4703;48.748;19.142;2022-08-14T13:23:04;27.20;68.40
9329;DHT22;4703;48.748;19.142;2022-08-14T13:25:35;27.20;69.30
9329;DHT22;4703;48.748;19.142;2022-08-14T13:28:22;27.20;70.50
9329;DHT22;4703;48.748;19.142;2022-08-14T13:31:01;27.20;69.90
9329;DHT22;4703;48.748;19.142;2022-08-14T13:33:38;27.20;70.00
9329;DHT22;4703;48.748;19.142;2022-08-14T13:36:07;27.30;71.60
9329;DHT22;4703;48.748;19.142;2022-08-14T13:38:35;27.50;71.90
9329;DHT22;4703;48.748;19.142;2022-08-14T13:41:03;27.70;71.30
9329;DHT22;4703;48.748;19.142;2022-08-14T13:43:31;28.00;69.80
9329;DHT22;4703;48.748;19.142;2022-08-14T13:46:15;28.30;69.90
9329;DHT22;4703;48.748;19.142;2022-08-14T13:48:45;28.70;66.80
9329;DHT22;4703;48.748;19.142;2022-08-14T13:51:14;29.00;65.70
9329;DHT22;4703;48.748;19.142;2022-08-14T13:53:47;29.40;66.40
9329;DHT22;4703;48.748;19.142;2022-08-14T13:56:39;29.70;69.50
9329;DHT22;4703;48.748;19.142;2022-08-14T13:59:08;30.30;67.40
9329;DHT22;4703;48.748;19.142;2022-08-14T14:01:36;30.80;65.70
9329;DHT22;4703;48.748;19.142;2022-08-14T14:04:14;31.20;61.10
9329;DHT22;4703;48.748;19.142;2022-08-14T14:06:47;31.50;59.70
9329;DHT22;4703;48.748;19.142;2022-08-14T14:09:26;31.50;59.20
9329;DHT22;4703;48.748;19.142;2022-08-14T14:12:03;31.30;60.50
9329;DHT22;4703;48.748;19.142;2022-08-14T14:14:54;31.00;57.70
9329;DHT22;4703;48.748;19.142;2022-08-14T14:17:21;30.50;58.50
9329;DHT22;4703;48.748;19.142;2022-08-14T14:19:55;30.20;59.20
9329;DHT22;4703;48.748;19.142;2022-08-14T14:22:26;29.90;58.80
9329;DHT22;4703;48.748;19.142;2022-08-14T14:25:15;29.60;64.20
9329;DHT22;4703;48.748;19.142;2022-08-14T14:27:48;29.40;64.20
9329;DHT22;4703;48.748;19.142;2022-08-14T14:30:19;29.20;68.50
9329;DHT22;4703;48.748;19.142;2022-08-14T14:33:11;28.90;69.50
9329;DHT22;4703;48.748;19.142;2022-08-14T14:35:59;28.70;66.10
9329;DHT22;4703;48.748;19.142;2022-08-14T14:38:32;28.40;66.30
9329;DHT22;4703;48.748;19.142;2022-08-14T14:41:00;28.20;67.80
9329;DHT22;4703;48.748;19.142;2022-08-14T14:43:33;28.10;69.10
9329;DHT22;4703;48.748;19.142;2022-08-14T14:46:01;27.90;68.90
9329;DHT22;4703;48.748;19.142;2022-08-14T14:48:40;27.80;69.70
9329;DHT22;4703;48.748;19.142;2022-08-14T14:51:19;27.80;70.60
9329;DHT22;4703;48.748;19.142;2022-08-14T14:53:47;27.80;70.10
9329;DHT22;4703;48.748;19.142;2022-08-14T14:56:14;28.00;70.00
9329;DHT22;4703;48.748;19.142;2022-08-14T14:59:02;28.30;69.00
9329;DHT22;4703;48.748;19.142;2022-08-14T15:01:33;28.90;69.70
9329;DHT22;4703;48.748;19.142;2022-08-14T15:04:02;29.50;67.90
9329;DHT22;4703;48.748;19.142;2022-08-14T15:06:45;30.20;64.30
9329;DHT22;4703;48.748;19.142;2022-08-14T15:09:13;31.00;62.80
9329;DHT22;4703;48.748;19.142;2022-08-14T15:11:43;31.50;60.60
9329;DHT22;4703;48.748;19.142;2022-08-14T15:14:13;32.10;61.30
9329;DHT22;4703;48.748;19.142;2022-08-14T15:17:00;32.60;59.00
9329;DHT22;4703;48.748;19.142;2022-08-14T15:19:27;33.10;56.70
9329;DHT22;4703;48.748;19.142;2022-08-14T15:21:56;33.20;56.10
9329;DHT22;4703;48.748;19.142;2022-08-14T15:24:23;33.10;56.50
9329;DHT22;4703;48.748;19.142;2022-08-14T15:26:53;33.00;55.00
9329;DHT22;4703;48.748;19.142;2022-08-14T15:29:25;33.00;54.90
9329;DHT22;4703;48.748;19.142;2022-08-14T15:31:52;33.20;54.70
9329;DHT22;4703;48.748;19.142;2022-08-14T15:34:20;33.50;54.20
9329;DHT22;4703;48.748;19.142;2022-08-14T15:37:07;33.70;55.40
9329;DHT22;4703;48.748;19.142;2022-08-14T15:39:38;34.00;54.40
9329;DHT22;4703;48.748;19.142;2022-08-14T15:42:08;34.10;52.60
9329;DHT22;4703;48.748;19.142;2022-08-14T15:44:47;33.90;51.30
9329;DHT22;4703;48.748;19.142;2022-08-14T15:47:29;33.70;53.40
9329;DHT22;4703;48.748;19.142;2022-08-14T15:50:03;33.50;53.50
9329;DHT22;4703;48.748;19.142;2022-08-14T15:52:35;32.80;57.00
9329;DHT22;4703;48.748;19.142;2022-08-14T15:55:11;32.20;57.30
9329;DHT22;4703;48.748;19.142;2022-08-14T15:57:42;31.60;57.30
9329;DHT22;4703;48.748;19.142;2022-08-14T16:00:33;31.20;59.20
9329;DHT22;4703;48.748;19.142;2022-08-14T16:03:21;30.70;61.10
9329;DHT22;4703;48.748;19.142;2022-08-14T16:06:10;30.30;59.60
9329;DHT22;4703;48.748;19.142;2022-08-14T16:08:45;30.30;59.70
9329;DHT22;4703;48.748;19.142;2022-08-14T16:11:20;30.50;59.40
9329;DHT22;4703;48.748;19.142;2022-08-14T16:13:48;31.00;59.10
9329;DHT22;4703;48.748;19.142;2022-08-14T16:16:24;31.40;59.10
9329;DHT22;4703;48.748;19.142;2022-08-14T16:19:17;31.90;58.90
9329;DHT22;4703;48.748;19.142;2022-08-14T16:21:45;32.20;58.60
9329;DHT22;4703;48.748;19.142;2022-08-14T16:24:38;32.60;57.60
9329;DHT22;4703;48.748;19.142;2022-08-14T16:27:30;32.70;57.30
9329;DHT22;4703;48.748;19.142;2022-08-14T16:30:09;33.00;56.90
9329;DHT22;4703;48.748;19.142;2022-08-14T16:32:54;33.10;56.50
9329;DHT22;4703;48.748;19.142;2022-08-14T16:35:28;33.20;56.40
9329;DHT22;4703;48.748;19.142;2022-08-14T16:38:20;33.30;55.90
9329;DHT22;4703;48.748;19.142;2022-08-14T16:41:13;33.20;55.90
9329;DHT22;4703;48.748;19.142;2022-08-14T16:44:01;33.10;56.40
9329;DHT22;4703;48.748;19.142;2022-08-14T16:46:50;32.90;56.10
9329;DHT22;4703;48.748;19.142;2022-08-14T16:49:23;32.50;57.80
9329;DHT22;4703;48.748;19.142;2022-08-14T16:52:12;32.00;58.30
9329;DHT22;4703;48.748;19.142;2022-08-14T16:55:00;31.40;59.40